Terminal Aerodrome Forecast
Issued by NWS Sioux Falls, SD

Home | Current Version | Previous Version | Text Only | Print | Product List | Glossary On
Versions: 1 2 3 4 5 6 7 8 9 10 11 12 13 14
000
FTUS43 KFSD 131000 AAB
TAFHON
TAF AMD
KHON 131040Z 1311/1406 35019G25KT P6SM OVC015
     FM131600 35019G29KT P6SM SCT025 OVC100
     FM131900 36024G34KT P6SM SCT100 OVC200
     FM140100 36017G26KT P6SM BKN200=

USA.gov is the U.S. government's official web portal to all federal, state and local government web resources and services.